Time;durP1;ratioP1;P1;durP2;ratioP2;P2;SDS_P1;SDS_P2;PMS_P1;PMS_P2;Temp;Humidity;BMP_temperature;BMP_pressure;BME280_temperature;BME280_humidity;BME280_pressure;Samples;Min_cycle;Max_cycle;Signal;HPM_P1;HPM_P2
2023/09/21 00:01:11;;;;;;;0.10;0.10;;;16.50;99.90;;;;;;5040828;28;20041;-69
2023/09/21 00:03:37;;;;;;;0.10;0.10;;;16.50;99.90;;;;;;5050383;28;20084;-69
2023/09/21 00:06:06;;;;;;;0.10;0.10;;;16.50;99.90;;;;;;5041151;28;20067;-70
2023/09/21 00:08:32;;;;;;;0.32;0.32;;;16.50;99.90;;;;;;5051069;28;20199;-69
2023/09/21 00:10:59;;;;;;;0.10;0.10;;;16.50;99.90;;;;;;5050153;28;20028;-69
2023/09/21 00:13:28;;;;;;;0.10;0.10;;;16.50;99.90;;;;;;5056623;28;20548;-69
2023/09/21 00:15:55;;;;;;;0.10;0.10;;;16.50;99.90;;;;;;5041238;28;20124;-69
2023/09/21 00:18:24;;;;;;;0.17;0.17;;;16.40;99.90;;;;;;5044863;28;20036;-69
2023/09/21 00:20:53;;;;;;;0.10;0.10;;;16.40;99.90;;;;;;5073698;28;20129;-69
2023/09/21 00:23:25;;;;;;;0.20;0.20;;;16.40;99.90;;;;;;5058457;28;20131;-69
2023/09/21 00:25:58;;;;;;;0.20;0.20;;;16.40;99.90;;;;;;5042021;28;20039;-69
2023/09/21 00:28:28;;;;;;;0.10;0.10;;;16.40;99.90;;;;;;5048936;28;20037;-69
2023/09/21 00:30:57;;;;;;;0.10;0.10;;;16.40;99.90;;;;;;5064176;28;20155;-69
2023/09/21 00:33:25;;;;;;;0.10;0.10;;;16.40;99.90;;;;;;5073527;28;20033;-69
2023/09/21 00:35:51;;;;;;;0.00;0.00;;;16.30;99.90;;;;;;5041382;28;20036;-69
2023/09/21 00:38:18;;;;;;;0.00;0.00;;;16.30;99.90;;;;;;5045327;28;20032;-69
2023/09/21 00:40:44;;;;;;;0.10;0.10;;;16.30;99.90;;;;;;5042625;28;20082;-69
2023/09/21 00:43:18;;;;;;;0.13;0.13;;;16.30;99.90;;;;;;5048060;28;20479;-69
2023/09/21 00:45:50;;;;;;;0.00;0.00;;;16.30;99.90;;;;;;5037278;28;20041;-69
2023/09/21 00:48:21;;;;;;;0.13;0.13;;;16.30;99.90;;;;;;5063549;28;20369;-69
2023/09/21 00:50:48;;;;;;;1.60;0.23;;;16.30;99.90;;;;;;5047253;28;20047;-69
2023/09/21 00:53:14;;;;;;;0.00;0.00;;;16.30;99.90;;;;;;5047977;28;20032;-69
2023/09/21 00:55:43;;;;;;;0.10;0.10;;;16.30;99.90;;;;;;5047982;28;20047;-69
2023/09/21 00:58:08;;;;;;;0.30;0.30;;;16.30;99.90;;;;;;5055083;28;20033;-69
2023/09/21 01:00:36;;;;;;;0.10;0.10;;;16.30;99.90;;;;;;5050838;28;20035;-69
2023/09/21 01:03:14;;;;;;;0.10;0.10;;;16.30;99.90;;;;;;5054265;28;20044;-69
2023/09/21 01:05:41;;;;;;;0.13;0.13;;;16.40;99.90;;;;;;5062314;28;20422;-68
2023/09/21 01:08:11;;;;;;;0.30;0.30;;;16.40;99.90;;;;;;5050707;28;20037;-68
2023/09/21 01:10:42;;;;;;;0.13;0.13;;;16.40;99.90;;;;;;5044049;28;20044;-69
2023/09/21 01:13:08;;;;;;;0.00;0.00;;;16.40;99.90;;;;;;5073167;28;20450;-68
2023/09/21 01:15:37;;;;;;;0.10;0.10;;;16.40;99.90;;;;;;5071988;28;20163;-69
2023/09/21 01:18:07;;;;;;;0.10;0.10;;;16.40;99.90;;;;;;5049080;28;20048;-68
2023/09/21 01:20:32;;;;;;;0.40;0.40;;;16.40;99.90;;;;;;5046480;28;20096;-69
2023/09/21 01:23:14;;;;;;;0.10;0.10;;;16.50;99.90;;;;;;5052087;28;20049;-68
2023/09/21 01:25:45;;;;;;;0.00;0.00;;;16.50;99.90;;;;;;5050016;28;20092;-68
2023/09/21 01:28:16;;;;;;;0.10;0.10;;;16.50;99.90;;;;;;5047985;28;20040;-68
2023/09/21 01:30:43;;;;;;;0.00;0.00;;;16.50;99.90;;;;;;5040748;28;20063;-69
2023/09/21 01:33:11;;;;;;;0.03;0.03;;;16.50;99.90;;;;;;5043469;28;20588;-69
2023/09/21 01:35:37;;;;;;;0.20;0.10;;;16.50;99.90;;;;;;5051953;28;20123;-68
2023/09/21 01:38:06;;;;;;;0.00;0.00;;;16.50;99.90;;;;;;5050107;28;20033;-69
2023/09/21 01:40:34;;;;;;;0.10;0.10;;;16.60;99.90;;;;;;5047663;28;20052;-69
2023/09/21 01:43:08;;;;;;;0.00;0.00;;;16.60;99.90;;;;;;5083203;28;20647;-68
2023/09/21 01:45:37;;;;;;;0.10;0.10;;;16.60;99.90;;;;;;5040778;28;20399;-69
2023/09/21 01:48:09;;;;;;;0.20;0.20;;;16.60;99.90;;;;;;5049209;28;20505;-68
2023/09/21 01:50:50;;;;;;;0.20;0.10;;;16.60;99.90;;;;;;5043912;28;20532;-69
2023/09/21 01:53:21;;;;;;;0.13;0.13;;;16.70;99.90;;;;;;5071901;28;20048;-69
2023/09/21 01:55:49;;;;;;;0.10;0.10;;;16.60;99.90;;;;;;5048042;28;20331;-68
2023/09/21 01:58:16;;;;;;;0.30;0.20;;;16.60;99.90;;;;;;5043573;28;20043;-69
2023/09/21 02:00:43;;;;;;;0.10;0.10;;;16.60;99.90;;;;;;5047505;28;20068;-70
2023/09/21 02:03:11;;;;;;;0.52;0.52;;;16.60;99.90;;;;;;5048420;28;20044;-68
2023/09/21 02:05:37;;;;;;;0.10;0.10;;;16.60;99.90;;;;;;5046075;28;20044;-68
2023/09/21 02:08:07;;;;;;;0.00;0.00;;;16.60;99.90;;;;;;5048262;28;20056;-68
2023/09/21 02:10:34;;;;;;;0.10;0.10;;;16.60;99.90;;;;;;5041050;28;20036;-69
2023/09/21 02:13:01;;;;;;;0.20;0.20;;;16.60;99.90;;;;;;5044021;28;20044;-68
2023/09/21 02:15:27;;;;;;;0.22;0.20;;;16.60;99.90;;;;;;5069728;28;20048;-69
2023/09/21 02:17:55;;;;;;;0.00;0.00;;;16.60;99.90;;;;;;5053724;28;20036;-68
2023/09/21 02:20:22;;;;;;;0.10;0.10;;;16.60;99.90;;;;;;5063471;28;20041;-69
2023/09/21 02:22:52;;;;;;;0.05;0.05;;;16.60;99.90;;;;;;5047082;28;20043;-69
2023/09/21 02:25:19;;;;;;;0.13;0.13;;;16.60;99.90;;;;;;5063653;28;20041;-68
2023/09/21 02:27:46;;;;;;;0.15;0.15;;;16.60;99.90;;;;;;5049649;28;20036;-68
2023/09/21 02:30:17;;;;;;;0.28;0.28;;;16.60;99.90;;;;;;5044806;28;20075;-69
2023/09/21 02:32:50;;;;;;;0.10;0.10;;;16.60;99.90;;;;;;5041884;28;20037;-69
2023/09/21 02:35:19;;;;;;;0.20;0.10;;;16.60;99.90;;;;;;5045812;28;20455;-69
2023/09/21 02:37:46;;;;;;;0.08;0.08;;;16.60;99.90;;;;;;5034305;28;20142;-69
2023/09/21 02:40:16;;;;;;;0.10;0.10;;;16.60;99.90;;;;;;5064328;28;20041;-69
2023/09/21 02:42:46;;;;;;;0.10;0.10;;;16.60;99.90;;;;;;5045836;28;20052;-69
2023/09/21 02:45:13;;;;;;;0.28;0.28;;;16.60;99.90;;;;;;5068895;28;20037;-69
2023/09/21 02:47:42;;;;;;;0.10;0.10;;;16.60;99.90;;;;;;5036294;28;20426;-68
2023/09/21 02:50:31;;;;;;;0.10;0.10;;;16.50;99.90;;;;;;5042066;28;20110;-68
2023/09/21 02:53:11;;;;;;;0.10;0.10;;;16.50;99.90;;;;;;5039565;28;20466;-69
2023/09/21 02:55:38;;;;;;;0.03;0.03;;;16.50;99.90;;;;;;5025396;28;20029;-69
2023/09/21 02:58:11;;;;;;;0.05;0.05;;;16.50;99.90;;;;;;5073154;28;20041;-68
2023/09/21 03:00:45;;;;;;;0.10;0.10;;;16.50;99.90;;;;;;5039965;28;20045;-68
2023/09/21 03:03:15;;;;;;;0.17;0.17;;;16.50;99.90;;;;;;5043899;28;20502;-68
2023/09/21 03:05:42;;;;;;;0.95;0.20;;;16.50;99.90;;;;;;5036808;28;20068;-69
2023/09/21 03:08:14;;;;;;;0.15;0.15;;;16.50;99.90;;;;;;5043671;28;20040;-68
2023/09/21 03:10:48;;;;;;;0.25;0.25;;;16.50;99.90;;;;;;5036040;28;20053;-68
2023/09/21 03:13:18;;;;;;;0.10;0.10;;;16.50;99.90;;;;;;5040052;28;20036;-68
2023/09/21 03:15:58;;;;;;;0.38;0.22;;;16.60;99.90;;;;;;5037365;28;20139;-68
2023/09/21 03:18:25;;;;;;;0.20;0.20;;;16.50;99.90;;;;;;5042957;28;20037;-69
2023/09/21 03:20:54;;;;;;;0.20;0.20;;;16.50;99.90;;;;;;5041781;28;20324;-68
2023/09/21 03:23:21;;;;;;;0.20;0.20;;;16.50;99.90;;;;;;5042155;28;20102;-68
2023/09/21 03:25:49;;;;;;;0.10;0.10;;;16.50;99.90;;;;;;5038159;28;20094;-68
2023/09/21 03:28:16;;;;;;;0.10;0.10;;;16.50;99.90;;;;;;5033463;28;20053;-68
2023/09/21 03:30:50;;;;;;;0.20;0.20;;;16.50;99.90;;;;;;5047305;28;20480;-68
2023/09/21 03:33:18;;;;;;;0.10;0.10;;;16.50;99.90;;;;;;5034845;28;20123;-69
2023/09/21 03:35:44;;;;;;;0.08;0.08;;;16.50;99.90;;;;;;5034064;28;20024;-68
2023/09/21 03:38:12;;;;;;;0.10;0.10;;;16.50;99.90;;;;;;5070260;28;20542;-68
2023/09/21 03:40:38;;;;;;;0.20;0.20;;;16.50;99.90;;;;;;5037438;28;20048;-69
2023/09/21 03:43:06;;;;;;;0.08;0.08;;;16.50;99.90;;;;;;5039426;28;20455;-69
2023/09/21 03:45:32;;;;;;;0.10;0.10;;;16.50;99.90;;;;;;5069228;28;20041;-69
2023/09/21 03:47:59;;;;;;;0.10;0.10;;;16.50;99.90;;;;;;5074277;28;20047;-68
2023/09/21 03:50:25;;;;;;;0.22;0.22;;;16.50;99.90;;;;;;5070287;28;20084;-68
2023/09/21 03:52:53;;;;;;;0.10;0.10;;;16.50;99.90;;;;;;5042939;28;20491;-68
2023/09/21 03:55:19;;;;;;;0.13;0.13;;;16.50;99.90;;;;;;5035977;28;20037;-69
2023/09/21 03:57:46;;;;;;;0.10;0.10;;;16.50;99.90;;;;;;5046247;28;20036;-68
2023/09/21 04:00:36;;;;;;;0.30;0.30;;;16.50;99.90;;;;;;5039533;28;20399;-69
2023/09/21 04:03:09;;;;;;;0.10;0.10;;;16.50;99.90;;;;;;5034435;28;20049;-69
2023/09/21 04:05:40;;;;;;;0.30;0.30;;;16.50;99.90;;;;;;5067241;28;20419;-69
2023/09/21 04:08:06;;;;;;;0.20;0.20;;;16.50;99.90;;;;;;5070058;28;20948;-70
2023/09/21 04:10:33;;;;;;;0.00;0.00;;;16.50;99.90;;;;;;5021803;28;20119;-69
2023/09/21 04:12:59;;;;;;;0.00;0.00;;;16.50;99.90;;;;;;5038431;28;20033;-69
2023/09/21 04:15:26;;;;;;;0.10;0.10;;;16.50;99.90;;;;;;5040422;28;20387;-69
2023/09/21 04:17:52;;;;;;;0.13;0.13;;;16.50;99.90;;;;;;5068473;28;21126;-69
2023/09/21 04:20:18;;;;;;;0.10;0.10;;;16.50;99.90;;;;;;5038147;28;20043;-69
2023/09/21 04:22:45;;;;;;;0.08;0.08;;;16.50;99.90;;;;;;5036888;28;20044;-69
2023/09/21 04:25:13;;;;;;;0.20;0.20;;;16.50;99.90;;;;;;5035209;28;20064;-69
2023/09/21 04:27:47;;;;;;;0.10;0.10;;;16.50;99.90;;;;;;5036957;28;20048;-69
2023/09/21 04:30:14;;;;;;;0.10;0.10;;;16.50;99.90;;;;;;5067879;28;20131;-69
2023/09/21 04:32:47;;;;;;;0.30;0.30;;;16.50;99.90;;;;;;5039514;28;20037;-69
2023/09/21 04:35:18;;;;;;;0.03;0.03;;;16.40;99.90;;;;;;5040912;28;20060;-69
2023/09/21 04:37:48;;;;;;;0.10;0.10;;;16.40;99.90;;;;;;5040360;28;20044;-69
2023/09/21 04:40:14;;;;;;;0.10;0.10;;;16.40;99.90;;;;;;5072032;28;20043;-69
2023/09/21 04:42:41;;;;;;;0.10;0.10;;;16.40;99.90;;;;;;5075737;28;20463;-69
2023/09/21 04:45:11;;;;;;;0.00;0.00;;;16.30;99.90;;;;;;5049792;28;20139;-69
2023/09/21 04:47:48;;;;;;;0.10;0.10;;;16.30;99.90;;;;;;5071145;28;20155;-69
2023/09/21 04:50:16;;;;;;;0.10;0.10;;;16.30;99.90;;;;;;5036517;28;20047;-69
2023/09/21 04:52:43;;;;;;;0.10;0.10;;;16.30;99.90;;;;;;5042776;28;20051;-69
2023/09/21 04:55:09;;;;;;;0.10;0.10;;;16.30;99.90;;;;;;5043708;28;20098;-69
2023/09/21 04:57:38;;;;;;;0.00;0.00;;;16.20;99.90;;;;;;5038824;28;20037;-69
2023/09/21 05:00:07;;;;;;;0.28;0.28;;;16.20;99.90;;;;;;5043981;28;20075;-69
2023/09/21 05:02:33;;;;;;;0.10;0.10;;;16.20;99.90;;;;;;5036910;28;20064;-69
2023/09/21 05:04:59;;;;;;;0.10;0.10;;;16.20;99.90;;;;;;5040217;28;20471;-69
2023/09/21 05:07:25;;;;;;;0.10;0.10;;;16.20;99.90;;;;;;5047965;28;20044;-70
2023/09/21 05:09:51;;;;;;;0.20;0.20;;;16.20;99.90;;;;;;5043149;28;20101;-70
2023/09/21 05:12:18;;;;;;;0.10;0.10;;;16.20;99.90;;;;;;5044907;28;20383;-69
2023/09/21 05:14:48;;;;;;;0.03;0.03;;;16.20;99.90;;;;;;5073239;28;20565;-69
2023/09/21 05:17:14;;;;;;;0.15;0.15;;;16.20;99.90;;;;;;5042755;28;20428;-69
2023/09/21 05:19:41;;;;;;;0.10;0.10;;;16.30;99.90;;;;;;5041876;28;20081;-69
2023/09/21 05:22:08;;;;;;;0.10;0.10;;;16.30;99.90;;;;;;5044184;28;20045;-69
2023/09/21 05:24:36;;;;;;;0.10;0.10;;;16.30;99.90;;;;;;5046131;28;20487;-69
2023/09/21 05:27:02;;;;;;;0.10;0.10;;;16.30;99.90;;;;;;5040342;28;20056;-69
2023/09/21 05:29:27;;;;;;;0.00;0.00;;;16.40;99.90;;;;;;5042972;28;20058;-69
2023/09/21 05:31:53;;;;;;;0.10;0.10;;;16.30;99.90;;;;;;5043111;28;20120;-69
2023/09/21 05:34:22;;;;;;;0.10;0.10;;;16.40;99.90;;;;;;5051932;28;20040;-69
2023/09/21 05:36:50;;;;;;;0.10;0.10;;;16.40;99.90;;;;;;5041747;28;20033;-69
2023/09/21 05:39:16;;;;;;;0.00;0.00;;;16.40;99.90;;;;;;5039667;28;20087;-69
2023/09/21 05:41:43;;;;;;;0.10;0.10;;;16.50;99.90;;;;;;5069393;28;20506;-69
2023/09/21 05:44:09;;;;;;;0.45;0.20;;;16.50;99.90;;;;;;5046073;28;20407;-69
2023/09/21 05:46:35;;;;;;;0.10;0.10;;;16.60;99.90;;;;;;5041733;28;20052;-69
2023/09/21 05:49:00;;;;;;;0.20;0.20;;;16.60;99.90;;;;;;5046148;28;20041;-69
2023/09/21 05:51:26;;;;;;;0.00;0.00;;;16.60;99.90;;;;;;5040946;28;20037;-69
2023/09/21 05:53:52;;;;;;;0.20;0.10;;;16.60;99.90;;;;;;5044667;28;20037;-69
2023/09/21 05:56:19;;;;;;;0.10;0.10;;;16.60;99.90;;;;;;5040483;28;20067;-68
2023/09/21 05:58:46;;;;;;;0.20;0.20;;;16.70;99.90;;;;;;5045458;28;20037;-69
2023/09/21 06:01:13;;;;;;;0.10;0.10;;;16.70;99.90;;;;;;5037466;28;20388;-69
2023/09/21 06:03:39;;;;;;;0.10;0.10;;;16.70;99.90;;;;;;5049559;28;20043;-68
2023/09/21 06:06:07;;;;;;;0.10;0.10;;;16.70;99.90;;;;;;5038898;28;20044;-69
2023/09/21 06:08:37;;;;;;;0.20;0.20;;;16.80;99.90;;;;;;5043374;28;20043;-69
2023/09/21 06:11:03;;;;;;;0.10;0.10;;;16.80;99.90;;;;;;5039415;28;20041;-69
2023/09/21 06:13:29;;;;;;;0.00;0.00;;;16.80;99.90;;;;;;5073810;28;20049;-69
2023/09/21 06:15:55;;;;;;;0.10;0.10;;;16.80;99.90;;;;;;5045995;28;20041;-69
2023/09/21 06:18:22;;;;;;;0.30;0.15;;;16.80;99.90;;;;;;5048142;28;20496;-69
2023/09/21 06:20:48;;;;;;;0.10;0.10;;;16.80;99.90;;;;;;5038466;28;20063;-69
2023/09/21 06:23:17;;;;;;;0.00;0.00;;;16.80;99.90;;;;;;5041454;28;20044;-69
2023/09/21 06:25:43;;;;;;;0.10;0.10;;;16.80;99.90;;;;;;5071550;28;20154;-68
2023/09/21 06:28:09;;;;;;;0.10;0.10;;;16.80;99.90;;;;;;5039715;28;20056;-69
2023/09/21 06:30:34;;;;;;;0.10;0.10;;;16.80;99.90;;;;;;5069556;28;20048;-69
2023/09/21 06:33:01;;;;;;;0.70;0.30;;;16.90;99.90;;;;;;5044689;28;20040;-69
2023/09/21 06:35:27;;;;;;;0.10;0.10;;;16.90;99.90;;;;;;5041864;28;20464;-69
2023/09/21 06:37:55;;;;;;;0.10;0.10;;;16.90;99.90;;;;;;5042722;28;20044;-69
2023/09/21 06:40:22;;;;;;;0.10;0.10;;;16.90;99.90;;;;;;5042492;28;20072;-68
2023/09/21 06:42:48;;;;;;;0.20;0.20;;;16.90;99.90;;;;;;5046756;28;20047;-68
2023/09/21 06:45:13;;;;;;;0.17;0.17;;;16.90;99.90;;;;;;5071026;28;20041;-68
2023/09/21 06:47:39;;;;;;;0.10;0.10;;;16.90;99.90;;;;;;5044580;28;20051;-68
2023/09/21 06:50:07;;;;;;;0.10;0.10;;;16.90;99.90;;;;;;5041418;28;21963;-67
2023/09/21 06:52:33;;;;;;;0.10;0.10;;;16.90;99.90;;;;;;5041162;28;20087;-68
2023/09/21 06:55:00;;;;;;;0.22;0.10;;;16.80;99.90;;;;;;5036908;28;20076;-67
2023/09/21 06:57:26;;;;;;;0.10;0.10;;;16.80;99.90;;;;;;5075240;28;20389;-68
2023/09/21 06:59:52;;;;;;;0.17;0.17;;;16.80;99.90;;;;;;5043857;28;20037;-67
2023/09/21 07:02:18;;;;;;;0.10;0.10;;;16.80;99.90;;;;;;5042308;28;20090;-67
2023/09/21 07:04:43;;;;;;;1.00;0.68;;;16.90;99.90;;;;;;5042700;28;20040;-67
2023/09/21 07:07:09;;;;;;;0.45;0.10;;;16.90;99.90;;;;;;5047384;28;20048;-67
2023/09/21 07:09:35;;;;;;;0.10;0.10;;;16.90;99.90;;;;;;5042806;28;20101;-68
2023/09/21 07:12:02;;;;;;;0.60;0.52;;;16.90;99.90;;;;;;5062349;28;20037;-68
2023/09/21 07:14:28;;;;;;;2.50;0.55;;;17.00;99.90;;;;;;5040271;28;20124;-67
2023/09/21 07:16:55;;;;;;;0.10;0.10;;;17.00;99.90;;;;;;5042712;28;20119;-67
2023/09/21 07:19:20;;;;;;;0.63;0.35;;;17.10;99.90;;;;;;5045804;28;20634;-67
2023/09/21 07:21:46;;;;;;;0.00;0.00;;;17.10;99.90;;;;;;5042695;28;20403;-68
2023/09/21 07:24:11;;;;;;;0.10;0.10;;;17.10;99.90;;;;;;5048881;28;20102;-67
2023/09/21 07:26:37;;;;;;;0.10;0.10;;;17.20;99.90;;;;;;5042788;28;20399;-67
2023/09/21 07:29:06;;;;;;;0.20;0.20;;;17.20;99.90;;;;;;5039780;28;20083;-67
2023/09/21 07:31:33;;;;;;;0.25;0.25;;;17.20;99.90;;;;;;5056052;28;20086;-67
2023/09/21 07:34:02;;;;;;;0.10;0.10;;;17.20;99.90;;;;;;5042326;28;20037;-67
2023/09/21 07:36:28;;;;;;;0.13;0.13;;;17.20;99.90;;;;;;5040851;28;20069;-67
2023/09/21 07:38:55;;;;;;;0.57;0.47;;;17.20;99.90;;;;;;5034565;28;20060;-66
2023/09/21 07:41:22;;;;;;;0.80;0.38;;;17.30;99.90;;;;;;5046061;28;20051;-67
2023/09/21 07:43:50;;;;;;;0.10;0.10;;;17.30;99.90;;;;;;5044801;28;20655;-67
2023/09/21 07:46:15;;;;;;;0.30;0.30;;;17.30;99.90;;;;;;5039123;28;20406;-67
2023/09/21 07:48:41;;;;;;;0.10;0.10;;;17.30;99.90;;;;;;5043469;28;20032;-67
2023/09/21 07:51:08;;;;;;;0.20;0.13;;;17.30;99.90;;;;;;5044921;28;20039;-67
2023/09/21 07:53:35;;;;;;;0.50;0.45;;;17.30;99.90;;;;;;5045591;28;20058;-66
2023/09/21 07:56:05;;;;;;;1.20;0.30;;;17.30;99.90;;;;;;5042143;28;20399;-67
2023/09/21 07:58:31;;;;;;;1.08;1.02;;;17.30;99.90;;;;;;5042700;28;20067;-66
2023/09/21 08:00:57;;;;;;;0.30;0.30;;;17.30;99.90;;;;;;5039762;28;20471;-66
2023/09/21 08:03:26;;;;;;;0.05;0.05;;;17.40;99.90;;;;;;5045991;28;20552;-66
2023/09/21 08:05:55;;;;;;;0.65;0.20;;;17.40;99.90;;;;;;5039973;28;20060;-66
2023/09/21 08:08:24;;;;;;;0.57;0.43;;;17.40;99.90;;;;;;5041246;28;20482;-66
2023/09/21 08:10:51;;;;;;;2.40;0.75;;;17.40;99.90;;;;;;5041661;28;20050;-67
2023/09/21 08:13:17;;;;;;;0.47;0.32;;;17.40;99.90;;;;;;5044452;28;20067;-67
2023/09/21 08:15:46;;;;;;;0.10;0.10;;;17.40;99.90;;;;;;5040403;28;20040;-67
2023/09/21 08:18:12;;;;;;;0.50;0.50;;;17.40;99.90;;;;;;5075590;28;20045;-66
2023/09/21 08:20:40;;;;;;;2.63;0.60;;;17.40;99.90;;;;;;5040393;28;20475;-66
2023/09/21 08:23:07;;;;;;;0.30;0.30;;;17.40;99.90;;;;;;5073622;28;20094;-66
2023/09/21 08:25:35;;;;;;;0.55;0.50;;;17.40;99.90;;;;;;5062929;28;20071;-66
2023/09/21 08:28:05;;;;;;;0.77;0.68;;;17.40;99.90;;;;;;5035513;28;20465;-66
2023/09/21 08:30:32;;;;;;;0.57;0.57;;;17.40;99.90;;;;;;5040737;28;20040;-65
2023/09/21 08:32:58;;;;;;;0.20;0.20;;;17.30;99.90;;;;;;5040146;28;20055;-66
2023/09/21 08:35:24;;;;;;;0.10;0.10;;;17.30;99.90;;;;;;5038248;28;20056;-66
2023/09/21 08:37:50;;;;;;;2.13;0.40;;;17.20;99.90;;;;;;5043580;28;20044;-67
2023/09/21 08:40:16;;;;;;;0.20;0.20;;;17.10;99.90;;;;;;5036714;28;20399;-65
2023/09/21 08:42:44;;;;;;;0.20;0.20;;;17.10;99.90;;;;;;5036908;28;20055;-66
2023/09/21 08:45:11;;;;;;;0.90;0.32;;;17.00;99.90;;;;;;5037020;28;20052;-67
2023/09/21 08:47:40;;;;;;;0.73;0.73;;;17.00;99.90;;;;;;5048671;28;20108;-68
2023/09/21 08:50:09;;;;;;;0.73;0.50;;;17.00;99.90;;;;;;5069484;28;20048;-67
2023/09/21 08:52:36;;;;;;;0.82;0.55;;;16.90;99.90;;;;;;5046636;28;20045;-68
2023/09/21 08:55:02;;;;;;;0.75;0.57;;;16.90;99.90;;;;;;5043663;28;20068;-67
2023/09/21 08:57:28;;;;;;;0.30;0.30;;;16.80;99.90;;;;;;5045738;28;20048;-66
2023/09/21 08:59:58;;;;;;;0.28;0.28;;;16.80;99.90;;;;;;5038280;28;20541;-66
2023/09/21 09:02:24;;;;;;;0.63;0.35;;;16.80;99.90;;;;;;5043466;28;20079;-66
2023/09/21 09:04:50;;;;;;;8.85;0.80;;;16.80;99.90;;;;;;5039386;28;20040;-68
2023/09/21 09:07:18;;;;;;;0.20;0.20;;;16.70;99.90;;;;;;5042223;28;20036;-66
2023/09/21 09:09:46;;;;;;;0.50;0.50;;;16.70;99.90;;;;;;5025781;28;20079;-67
2023/09/21 09:12:21;;;;;;;0.35;0.35;;;16.60;99.90;;;;;;5043195;28;20089;-67
2023/09/21 09:14:47;;;;;;;0.40;0.40;;;16.50;99.90;;;;;;5040839;28;20033;-67
2023/09/21 09:17:14;;;;;;;0.20;0.20;;;16.50;99.90;;;;;;5041967;28;20032;-66
2023/09/21 09:19:40;;;;;;;0.20;0.20;;;16.30;99.90;;;;;;5043280;28;20045;-65
2023/09/21 09:22:06;;;;;;;0.88;0.30;;;16.10;99.90;;;;;;5045865;28;20063;-66
2023/09/21 09:24:33;;;;;;;0.10;0.10;;;16.00;99.90;;;;;;5040242;28;20071;-65
2023/09/21 09:26:59;;;;;;;0.20;0.20;;;15.90;99.90;;;;;;5039929;28;20049;-66
2023/09/21 09:29:26;;;;;;;0.10;0.10;;;15.80;99.90;;;;;;5039301;28;20049;-67
2023/09/21 09:31:52;;;;;;;0.10;0.10;;;15.70;99.90;;;;;;5043439;28;20443;-64
2023/09/21 09:34:18;;;;;;;0.10;0.10;;;15.60;99.90;;;;;;5048137;28;20147;-65
2023/09/21 09:36:55;;;;;;;1.20;0.45;;;15.60;99.90;;;;;;5043263;28;20040;-65
2023/09/21 09:39:23;;;;;;;0.10;0.10;;;15.50;99.90;;;;;;5048813;28;20410;-65
2023/09/21 09:41:51;;;;;;;0.57;0.57;;;15.50;99.90;;;;;;5033771;28;20048;-65
2023/09/21 09:44:24;;;;;;;0.10;0.10;;;15.40;99.90;;;;;;5043935;28;20051;-65
2023/09/21 09:46:57;;;;;;;0.60;0.22;;;15.40;99.90;;;;;;5077559;28;20132;-66
2023/09/21 09:49:28;;;;;;;0.00;0.00;;;15.40;99.90;;;;;;5051687;28;20051;-64
2023/09/21 09:51:56;;;;;;;0.10;0.10;;;15.40;99.90;;;;;;5045667;28;20040;-65
2023/09/21 09:54:24;;;;;;;0.10;0.10;;;15.50;99.90;;;;;;5040908;28;20041;-67
2023/09/21 09:56:52;;;;;;;0.00;0.00;;;15.50;99.90;;;;;;5046826;28;20033;-66
2023/09/21 09:59:21;;;;;;;1.38;0.77;;;15.40;99.90;;;;;;5038180;28;20040;-65
2023/09/21 10:01:48;;;;;;;0.10;0.10;;;15.40;99.90;;;;;;5073799;28;20037;-66
2023/09/21 10:04:15;;;;;;;0.10;0.10;;;15.40;99.90;;;;;;5045483;28;20087;-65
2023/09/21 10:06:42;;;;;;;0.10;0.10;;;15.30;99.90;;;;;;5035578;28;20404;-65
2023/09/21 10:09:13;;;;;;;0.13;0.10;;;15.30;99.90;;;;;;5053273;28;20036;-65
2023/09/21 10:11:50;;;;;;;0.10;0.10;;;15.20;99.90;;;;;;5035598;28;20037;-65
2023/09/21 10:14:17;;;;;;;0.15;0.15;;;15.20;99.90;;;;;;5082026;28;20041;-65
2023/09/21 10:16:53;;;;;;;0.10;0.10;;;15.30;99.90;;;;;;5046091;28;20037;-65
2023/09/21 10:19:26;;;;;;;0.10;0.10;;;15.20;99.90;;;;;;5046364;28;20394;-65
2023/09/21 10:22:03;;;;;;;0.05;0.05;;;15.20;99.90;;;;;;5055841;28;20068;-65
2023/09/21 10:24:30;;;;;;;0.10;0.10;;;15.10;99.90;;;;;;5028063;28;20045;-65
2023/09/21 10:27:03;;;;;;;0.03;0.03;;;15.10;99.90;;;;;;5039911;28;20533;-65
2023/09/21 10:29:33;;;;;;;0.22;0.22;;;15.10;99.90;;;;;;5043497;28;20039;-66
2023/09/21 10:32:06;;;;;;;0.10;0.10;;;15.10;99.90;;;;;;5048347;28;20042;-66
2023/09/21 10:34:32;;;;;;;0.32;0.20;;;15.10;99.90;;;;;;5054632;28;20045;-66
2023/09/21 10:37:10;;;;;;;0.03;0.03;;;15.20;99.90;;;;;;5040984;28;20029;-66
2023/09/21 10:39:42;;;;;;;0.20;0.20;;;15.30;99.90;;;;;;5049593;28;20520;-65
2023/09/21 10:42:08;;;;;;;0.00;0.00;;;15.40;99.90;;;;;;5075882;28;20040;-66
2023/09/21 10:45:03;;;;;;;0.10;0.10;;;15.40;99.90;;;;;;5050851;28;20119;-65
2023/09/21 10:47:35;;;;;;;0.10;0.10;;;15.50;99.90;;;;;;5051938;28;20052;-66
2023/09/21 10:50:12;;;;;;;0.10;0.10;;;15.50;99.90;;;;;;5053336;28;20049;-66
2023/09/21 10:52:48;;;;;;;0.20;0.20;;;15.50;99.90;;;;;;5033469;28;20045;-65
2023/09/21 10:55:16;;;;;;;0.10;0.10;;;15.60;99.90;;;;;;5033129;28;20056;-66
2023/09/21 10:57:44;;;;;;;0.10;0.10;;;15.50;99.90;;;;;;5038780;28;20036;-67
2023/09/21 11:00:25;;;;;;;0.10;0.10;;;15.50;99.90;;;;;;5048393;28;20036;-66
2023/09/21 11:02:53;;;;;;;0.43;0.23;;;15.50;99.90;;;;;;5066878;28;20056;-66
2023/09/21 11:05:19;;;;;;;0.03;0.03;;;15.50;99.90;;;;;;5036579;28;20307;-65
2023/09/21 11:07:47;;;;;;;0.25;0.25;;;15.50;99.90;;;;;;5034172;28;20062;-66
2023/09/21 11:10:14;;;;;;;0.10;0.10;;;15.50;99.90;;;;;;5076343;28;20032;-67
2023/09/21 11:12:44;;;;;;;0.10;0.10;;;15.50;99.90;;;;;;5044567;28;20028;-66
2023/09/21 11:15:13;;;;;;;0.13;0.13;;;15.50;99.90;;;;;;5038268;28;20175;-67
2023/09/21 11:17:44;;;;;;;0.10;0.10;;;15.50;99.90;;;;;;5039402;28;20037;-66
2023/09/21 11:20:17;;;;;;;0.13;0.13;;;15.50;99.90;;;;;;5037825;28;20045;-66
2023/09/21 11:22:44;;;;;;;0.30;0.30;;;15.50;99.90;;;;;;5066553;28;20044;-66
2023/09/21 11:25:16;;;;;;;0.20;0.20;;;15.50;99.90;;;;;;5045996;28;20048;-66
2023/09/21 11:27:42;;;;;;;0.20;0.20;;;15.50;99.90;;;;;;5042528;28;20036;-66
2023/09/21 11:30:11;;;;;;;0.10;0.10;;;15.50;99.90;;;;;;5042915;28;20052;-66
2023/09/21 11:32:43;;;;;;;0.10;0.10;;;15.50;99.90;;;;;;5030757;28;20550;-66
2023/09/21 11:35:10;;;;;;;0.30;0.30;;;15.50;99.90;;;;;;5051396;28;20562;-66
2023/09/21 11:37:35;;;;;;;0.10;0.10;;;15.50;99.90;;;;;;5082619;28;20040;-66
2023/09/21 11:40:03;;;;;;;0.10;0.10;;;15.50;99.90;;;;;;5049734;28;20051;-66
2023/09/21 11:42:33;;;;;;;0.00;0.00;;;15.60;99.90;;;;;;5042644;28;20044;-66
2023/09/21 11:44:58;;;;;;;0.00;0.00;;;15.50;99.90;;;;;;5042442;28;20130;-66
2023/09/21 11:47:24;;;;;;;0.00;0.00;;;15.50;99.90;;;;;;5033971;28;20167;-65
2023/09/21 11:49:53;;;;;;;0.10;0.10;;;15.40;99.90;;;;;;5042476;28;20442;-66
2023/09/21 11:52:21;;;;;;;0.10;0.10;;;15.30;99.90;;;;;;5043554;28;20167;-66
2023/09/21 11:54:48;;;;;;;0.13;0.13;;;15.30;99.90;;;;;;5041820;28;20482;-64
2023/09/21 11:57:14;;;;;;;0.05;0.05;;;15.10;99.90;;;;;;5040475;28;20052;-65
2023/09/21 11:59:42;;;;;;;0.98;0.43;;;15.10;99.90;;;;;;5065889;28;20102;-65
2023/09/21 12:02:09;;;;;;;0.10;0.10;;;15.00;99.90;;;;;;5069632;28;20044;-65
2023/09/21 12:04:37;;;;;;;0.10;0.10;;;15.10;99.90;;;;;;5050058;28;20052;-65
2023/09/21 12:07:04;;;;;;;0.13;0.13;;;15.10;99.90;;;;;;5039320;28;20522;-65
2023/09/21 12:09:30;;;;;;;0.13;0.13;;;15.20;99.90;;;;;;5050551;28;20145;-65
2023/09/21 12:11:55;;;;;;;0.65;0.65;;;15.30;99.90;;;;;;5032603;28;20554;-65
2023/09/21 12:14:24;;;;;;;0.05;0.05;;;15.30;99.90;;;;;;5054310;28;20028;-65
2023/09/21 12:16:53;;;;;;;0.20;0.20;;;15.30;99.90;;;;;;5047848;28;20032;-65
2023/09/21 12:19:19;;;;;;;0.10;0.10;;;15.30;99.90;;;;;;5048114;28;20048;-65
2023/09/21 12:21:46;;;;;;;0.10;0.10;;;15.30;99.90;;;;;;5032220;28;20047;-65
2023/09/21 12:24:12;;;;;;;0.00;0.00;;;15.30;99.90;;;;;;5049372;28;20513;-64
2023/09/21 12:26:37;;;;;;;0.10;0.10;;;15.30;99.90;;;;;;5049704;28;20098;-65
2023/09/21 12:29:03;;;;;;;0.20;0.20;;;15.30;99.90;;;;;;5038575;28;20407;-64
2023/09/21 12:31:29;;;;;;;0.10;0.10;;;15.30;99.90;;;;;;5043389;28;20082;-64
2023/09/21 12:33:55;;;;;;;0.10;0.10;;;15.30;99.90;;;;;;5039074;28;20036;-64
2023/09/21 12:36:24;;;;;;;0.00;0.00;;;15.30;99.90;;;;;;5062324;28;20040;-65
2023/09/21 12:38:51;;;;;;;0.17;0.10;;;15.30;99.90;;;;;;5032309;28;20036;-66
2023/09/21 12:41:16;;;;;;;2.10;0.20;;;15.40;99.90;;;;;;5039666;28;20097;-66
2023/09/21 12:43:42;;;;;;;0.35;0.15;;;15.40;99.90;;;;;;5033908;28;20041;-65
2023/09/21 12:46:08;;;;;;;0.10;0.10;;;15.40;99.90;;;;;;5036314;28;20542;-66
2023/09/21 12:48:38;;;;;;;0.28;0.20;;;15.40;99.90;;;;;;5048011;28;20037;-66
2023/09/21 12:51:04;;;;;;;0.10;0.10;;;15.40;99.90;;;;;;5035904;28;20080;-65
2023/09/21 12:53:29;;;;;;;0.10;0.10;;;15.40;99.90;;;;;;5068912;28;20095;-65